createdAt,value
2018-07-01T00:00:50.582Z,19.77
2018-07-01T00:01:50.574Z,19.69
2018-07-01T00:02:50.569Z,19.74
2018-07-01T00:03:50.559Z,19.71
2018-07-01T00:04:50.552Z,19.80
2018-07-01T00:05:50.543Z,19.81
2018-07-01T00:06:50.535Z,19.77
2018-07-01T00:07:50.529Z,19.76
2018-07-01T00:08:50.524Z,19.78
2018-07-01T00:09:50.517Z,19.76
2018-07-01T00:10:50.558Z,19.77
2018-07-01T00:11:50.496Z,19.71
2018-07-01T00:12:50.492Z,19.73
2018-07-01T00:13:50.486Z,19.77
2018-07-01T00:14:50.476Z,19.68
2018-07-01T00:15:50.470Z,19.76
2018-07-01T00:16:50.463Z,19.76
2018-07-01T00:17:50.453Z,19.77
2018-07-01T00:18:50.444Z,19.76
2018-07-01T00:19:50.437Z,19.71
2018-07-01T00:20:50.436Z,19.71
2018-07-01T00:21:50.420Z,19.66
2018-07-01T00:22:50.417Z,19.71
2018-07-01T00:23:50.414Z,19.59
2018-07-01T00:24:50.400Z,19.59
2018-07-01T00:25:50.391Z,19.63
2018-07-01T00:26:50.385Z,19.56
2018-07-01T00:27:50.384Z,19.48
2018-07-01T00:28:50.378Z,19.44
2018-07-01T00:29:50.363Z,19.63
2018-07-01T00:30:50.359Z,19.44
2018-07-01T00:31:50.350Z,19.54
2018-07-01T00:32:50.342Z,19.51
2018-07-01T00:33:50.336Z,19.54
2018-07-01T00:34:50.323Z,19.44
2018-07-01T00:35:50.319Z,19.55
2018-07-01T00:36:50.311Z,19.47
2018-07-01T00:37:50.304Z,19.46
2018-07-01T00:38:50.294Z,19.58
2018-07-01T00:39:50.289Z,19.55
2018-07-01T00:40:50.286Z,19.55
2018-07-01T00:41:50.273Z,19.41
2018-07-01T00:42:50.271Z,19.48
2018-07-01T00:43:50.255Z,19.44
2018-07-01T00:44:50.251Z,19.44
2018-07-01T00:45:50.244Z,19.44
2018-07-01T00:46:50.235Z,19.46
2018-07-01T00:47:50.231Z,19.41
2018-07-01T00:48:50.225Z,19.26
2018-07-01T00:49:50.214Z,19.19
2018-07-01T00:50:50.210Z,19.22
2018-07-01T00:51:50.196Z,19.19
2018-07-01T00:52:50.194Z,19.18
2018-07-01T00:53:50.184Z,19.22
2018-07-01T00:54:50.174Z,19.21
2018-07-01T00:55:50.169Z,19.18
2018-07-01T00:56:50.158Z,19.14
2018-07-01T00:57:50.149Z,19.19
2018-07-01T00:58:50.144Z,19.19
2018-07-01T00:59:50.137Z,19.16
2018-07-01T01:00:50.125Z,19.21
2018-07-01T01:01:50.122Z,19.18
2018-07-01T01:02:50.109Z,19.29
2018-07-01T01:03:50.097Z,19.25
2018-07-01T01:04:50.091Z,19.26
2018-07-01T01:05:50.090Z,19.26
2018-07-01T01:06:50.085Z,19.25
2018-07-01T01:07:50.076Z,19.28
2018-07-01T01:08:50.068Z,19.28
2018-07-01T01:09:50.060Z,19.23
2018-07-01T01:10:50.047Z,19.25
2018-07-01T01:11:50.046Z,19.16
2018-07-01T01:12:50.040Z,19.21
2018-07-01T01:13:50.029Z,19.13
2018-07-01T01:14:50.019Z,19.26
2018-07-01T01:15:50.011Z,19.23
2018-07-01T01:16:50.007Z,19.19
2018-07-01T01:17:49.999Z,19.22
2018-07-01T01:18:49.986Z,19.21
2018-07-01T01:19:49.983Z,19.19
2018-07-01T01:20:49.974Z,19.16
2018-07-01T01:21:49.961Z,19.16
2018-07-01T01:22:49.955Z,19.18
2018-07-01T01:23:49.947Z,19.13
2018-07-01T01:24:49.938Z,19.18
2018-07-01T01:25:49.931Z,19.11
2018-07-01T01:26:49.923Z,19.13
2018-07-01T01:27:49.917Z,19.14
2018-07-01T01:28:49.913Z,19.10
2018-07-01T01:29:49.902Z,19.08
2018-07-01T01:30:49.896Z,19.13
2018-07-01T01:31:49.888Z,19.22
2018-07-01T01:32:49.886Z,19.21
2018-07-01T01:33:49.866Z,19.13
2018-07-01T01:34:49.868Z,19.13
2018-07-01T01:35:49.856Z,19.08
2018-07-01T01:36:49.847Z,19.14
2018-07-01T01:37:49.839Z,19.11
2018-07-01T01:38:49.831Z,19.11
2018-07-01T01:39:49.823Z,19.14
2018-07-01T01:40:49.819Z,19.08
2018-07-01T01:41:49.814Z,19.13
2018-07-01T01:42:49.798Z,19.00
2018-07-01T01:43:49.790Z,19.06
2018-07-01T01:44:49.785Z,18.99
2018-07-01T01:45:49.774Z,18.98
2018-07-01T01:46:49.770Z,18.91
2018-07-01T01:47:49.764Z,18.99
2018-07-01T01:48:49.754Z,19.00
2018-07-01T01:49:49.746Z,18.95
2018-07-01T01:50:49.738Z,18.92
2018-07-01T01:51:49.731Z,18.92
2018-07-01T01:52:49.720Z,18.91
2018-07-01T01:53:49.713Z,18.92
2018-07-01T01:54:49.705Z,18.88
2018-07-01T01:55:49.691Z,18.91
2018-07-01T01:56:49.689Z,18.84
2018-07-01T01:57:49.681Z,18.98
2018-07-01T01:58:49.676Z,18.87
2018-07-01T01:59:49.661Z,18.90
2018-07-01T02:00:49.653Z,18.87
2018-07-01T02:01:49.652Z,18.90
2018-07-01T02:02:49.643Z,18.90
2018-07-01T02:03:49.638Z,18.88
2018-07-01T02:04:49.629Z,18.98
2018-07-01T02:05:49.618Z,18.80
2018-07-01T02:06:49.610Z,18.92
2018-07-01T02:07:49.600Z,18.92
2018-07-01T02:08:49.596Z,18.92
2018-07-01T02:09:49.587Z,18.95
2018-07-01T02:10:49.575Z,18.90
2018-07-01T02:11:49.567Z,18.90
2018-07-01T02:12:49.563Z,18.92
2018-07-01T02:13:49.561Z,18.90
2018-07-01T02:14:49.554Z,18.87
2018-07-01T02:15:49.541Z,18.92
2018-07-01T02:16:49.576Z,18.90
2018-07-01T02:17:49.522Z,18.81
2018-07-01T02:18:49.514Z,18.85
2018-07-01T02:19:49.502Z,18.88
2018-07-01T02:20:49.500Z,18.85
2018-07-01T02:21:49.491Z,18.88
2018-07-01T02:22:49.480Z,18.80
2018-07-01T02:23:49.475Z,18.87
2018-07-01T02:24:49.463Z,18.76
2018-07-01T02:25:49.459Z,18.84
2018-07-01T02:26:49.454Z,18.87
2018-07-01T02:27:49.444Z,18.75
2018-07-01T02:28:49.434Z,18.82
2018-07-01T02:29:49.429Z,18.75
2018-07-01T02:30:49.418Z,18.76
2018-07-01T02:31:49.410Z,18.75
2018-07-01T02:32:49.394Z,18.73
2018-07-01T02:33:49.393Z,18.70
2018-07-01T02:34:49.384Z,18.70
2018-07-01T02:35:49.375Z,18.78
2018-07-01T02:36:49.368Z,18.76
2018-07-01T02:37:49.361Z,18.67
2018-07-01T02:38:49.349Z,18.75
2018-07-01T02:39:49.345Z,18.72
2018-07-01T02:40:49.335Z,18.70
2018-07-01T02:41:49.323Z,18.78
2018-07-01T02:42:49.320Z,18.69
2018-07-01T02:43:49.313Z,18.78
2018-07-01T02:44:49.306Z,18.75
2018-07-01T02:45:49.297Z,18.80
2018-07-01T02:46:49.288Z,18.72
2018-07-01T02:47:49.280Z,18.75
2018-07-01T02:48:49.268Z,18.76
2018-07-01T02:49:49.263Z,18.73
2018-07-01T02:50:49.253Z,18.76
2018-07-01T02:51:49.247Z,18.72
2018-07-01T02:52:49.243Z,18.76
2018-07-01T02:53:49.245Z,18.72
2018-07-01T02:54:49.220Z,18.78
2018-07-01T02:55:49.224Z,18.70
2018-07-01T02:56:49.206Z,18.75
2018-07-01T02:57:49.201Z,18.70
2018-07-01T02:58:49.191Z,18.73
2018-07-01T02:59:49.183Z,18.67
2018-07-01T03:00:49.177Z,18.66
2018-07-01T03:01:49.165Z,18.72
2018-07-01T03:02:49.155Z,18.54
2018-07-01T03:03:49.153Z,18.57
2018-07-01T03:04:49.141Z,18.55
2018-07-01T03:05:49.134Z,18.54
2018-07-01T03:06:49.123Z,18.62
2018-07-01T03:07:49.118Z,18.47
2018-07-01T03:08:49.114Z,18.54
2018-07-01T03:09:49.100Z,18.48
2018-07-01T03:10:49.094Z,18.50
2018-07-01T03:11:49.084Z,18.51
2018-07-01T03:12:49.078Z,18.42
2018-07-01T03:13:49.067Z,18.45
2018-07-01T03:14:49.059Z,18.42
2018-07-01T03:15:49.048Z,18.41
2018-07-01T03:16:49.042Z,18.41
2018-07-01T03:17:49.075Z,18.44
2018-07-01T03:18:49.028Z,18.42
2018-07-01T03:19:49.021Z,18.41
2018-07-01T03:20:49.005Z,18.37
2018-07-01T03:21:49.003Z,18.44
2018-07-01T03:22:48.992Z,18.54
2018-07-01T03:23:48.988Z,18.39
2018-07-01T03:24:48.976Z,18.45
2018-07-01T03:25:48.970Z,18.37
2018-07-01T03:26:48.957Z,18.41
2018-07-01T03:27:48.949Z,18.37
2018-07-01T03:28:48.943Z,18.36
2018-07-01T03:29:48.936Z,18.39
2018-07-01T03:30:49.005Z,18.37
2018-07-01T03:31:48.921Z,18.37
2018-07-01T03:32:48.922Z,18.36
2018-07-01T03:33:48.899Z,18.35
2018-07-01T03:34:48.897Z,18.42
2018-07-01T03:35:48.888Z,18.36
2018-07-01T03:36:48.880Z,18.33
2018-07-01T03:37:48.871Z,18.30
2018-07-01T03:38:48.859Z,18.37
2018-07-01T03:39:48.855Z,18.29
2018-07-01T03:40:48.849Z,18.32
2018-07-01T03:41:48.833Z,18.35
2018-07-01T03:42:48.828Z,18.36
2018-07-01T03:43:48.821Z,18.27
2018-07-01T03:44:48.810Z,18.25
2018-07-01T03:45:48.802Z,18.29
2018-07-01T03:46:48.794Z,18.32
2018-07-01T03:47:48.784Z,18.25
2018-07-01T03:48:48.775Z,18.17
2018-07-01T03:49:48.769Z,18.25
2018-07-01T03:50:48.762Z,18.10
2018-07-01T03:51:48.754Z,18.21
2018-07-01T03:52:48.748Z,18.07
2018-07-01T03:53:48.737Z,18.15
2018-07-01T03:54:48.730Z,18.11
2018-07-01T03:55:48.719Z,18.10
2018-07-01T03:56:48.707Z,18.08
2018-07-01T03:57:48.867Z,18.10
2018-07-01T03:58:48.699Z,18.11
2018-07-01T03:59:48.693Z,18.18
2018-07-01T04:00:48.683Z,18.25
2018-07-01T04:01:48.671Z,18.10
2018-07-01T04:02:48.664Z,18.14
2018-07-01T04:03:48.651Z,18.10
2018-07-01T04:04:48.642Z,18.12
2018-07-01T04:05:48.638Z,18.21
2018-07-01T04:06:48.629Z,18.20
2018-07-01T04:07:48.624Z,18.21
2018-07-01T04:08:48.608Z,18.07
2018-07-01T04:09:48.601Z,18.08
2018-07-01T04:10:48.593Z,18.10
2018-07-01T04:11:48.586Z,18.12
2018-07-01T04:12:48.583Z,18.10
2018-07-01T04:13:48.566Z,18.08
2018-07-01T04:14:48.560Z,18.08
2018-07-01T04:15:48.554Z,18.07
2018-07-01T04:16:48.538Z,18.15
2018-07-01T04:17:48.535Z,18.07
2018-07-01T04:18:48.527Z,18.10
2018-07-01T04:19:48.519Z,18.08
2018-07-01T04:20:48.506Z,18.10
2018-07-01T04:21:48.499Z,18.07
2018-07-01T04:22:48.495Z,18.08
2018-07-01T04:23:48.487Z,18.02
2018-07-01T04:24:48.477Z,18.07
2018-07-01T04:25:48.470Z,18.07
2018-07-01T04:26:48.458Z,18.02
2018-07-01T04:27:48.450Z,18.10
2018-07-01T04:28:48.440Z,18.07
2018-07-01T04:29:48.434Z,18.07
2018-07-01T04:30:48.415Z,18.17
2018-07-01T04:31:48.417Z,18.10
2018-07-01T04:32:48.411Z,18.05
2018-07-01T04:33:48.398Z,18.07
2018-07-01T04:34:48.395Z,18.02
2018-07-01T04:35:48.381Z,17.95
2018-07-01T04:36:48.374Z,17.92
2018-07-01T04:37:48.360Z,18.00
2018-07-01T04:38:48.360Z,17.95
2018-07-01T04:39:48.350Z,17.92
2018-07-01T04:40:48.340Z,17.95
2018-07-01T04:41:48.335Z,17.97
2018-07-01T04:42:48.325Z,17.99
2018-07-01T04:43:48.315Z,17.97
2018-07-01T04:44:48.308Z,17.95
2018-07-01T04:45:48.297Z,18.05
2018-07-01T04:46:48.287Z,18.03
2018-07-01T04:47:48.279Z,18.07
2018-07-01T04:48:48.271Z,18.05
2018-07-01T04:49:48.265Z,18.07
2018-07-01T04:50:48.253Z,18.03
2018-07-01T04:51:48.246Z,18.08
2018-07-01T04:52:48.233Z,18.00
2018-07-01T04:53:48.232Z,18.08
2018-07-01T04:54:48.230Z,17.97
2018-07-01T04:55:48.212Z,17.90
2018-07-01T04:56:48.207Z,17.72
2018-07-01T04:57:48.197Z,17.59
2018-07-01T04:58:48.192Z,17.51
2018-07-01T04:59:48.175Z,17.52
2018-07-01T05:00:48.173Z,17.56
2018-07-01T05:01:48.173Z,17.52
2018-07-01T05:02:48.152Z,17.58
2018-07-01T05:03:48.145Z,17.58
2018-07-01T05:04:48.133Z,17.70
2018-07-01T05:05:48.126Z,17.63
2018-07-01T05:06:48.126Z,17.70
2018-07-01T05:07:48.112Z,17.72
2018-07-01T05:08:48.102Z,17.77
2018-07-01T05:09:48.090Z,17.78
2018-07-01T05:10:48.091Z,17.82
2018-07-01T05:11:48.073Z,17.79
2018-07-01T05:12:48.066Z,17.92
2018-07-01T05:13:48.058Z,17.93
2018-07-01T05:14:48.053Z,17.90
2018-07-01T05:15:48.046Z,17.92
2018-07-01T05:16:48.031Z,17.89
2018-07-01T05:17:48.020Z,17.99
2018-07-01T05:18:48.014Z,17.97
2018-07-01T05:19:48.009Z,17.93
2018-07-01T05:20:48.000Z,17.99
2018-07-01T05:21:47.987Z,17.97
2018-07-01T05:22:47.979Z,17.93
2018-07-01T05:23:47.973Z,17.95
2018-07-01T05:24:47.961Z,17.93
2018-07-01T05:25:47.950Z,17.95
2018-07-01T05:26:47.945Z,17.96
2018-07-01T05:27:47.933Z,17.95
2018-07-01T05:28:47.931Z,17.90
2018-07-01T05:29:47.920Z,17.84
2018-07-01T05:30:47.914Z,17.79
2018-07-01T05:31:47.902Z,17.78
2018-07-01T05:32:47.896Z,17.77
2018-07-01T05:33:47.911Z,17.74
2018-07-01T05:34:47.876Z,17.77
2018-07-01T05:35:47.879Z,17.77
2018-07-01T05:36:47.861Z,17.74
2018-07-01T05:37:47.850Z,17.74
2018-07-01T05:38:47.843Z,17.77
2018-07-01T05:39:47.835Z,17.71
2018-07-01T05:40:47.823Z,17.77
2018-07-01T05:41:47.813Z,17.75
2018-07-01T05:42:47.807Z,17.75
2018-07-01T05:43:47.797Z,17.75
2018-07-01T05:44:47.793Z,17.78
2018-07-01T05:45:47.781Z,17.77
2018-07-01T05:46:47.776Z,17.82
2018-07-01T05:47:47.770Z,17.87
2018-07-01T05:48:47.758Z,17.89
2018-07-01T05:49:47.748Z,17.96
2018-07-01T05:50:47.740Z,18.00
2018-07-01T05:51:47.735Z,17.97
2018-07-01T05:52:47.722Z,17.93
2018-07-01T05:53:47.713Z,17.96
2018-07-01T05:54:47.713Z,17.93
2018-07-01T05:55:47.697Z,18.07
2018-07-01T05:56:47.687Z,18.07
2018-07-01T05:57:47.677Z,18.00
2018-07-01T05:58:47.676Z,17.99
2018-07-01T05:59:47.661Z,18.07
2018-07-01T06:00:47.649Z,18.14
2018-07-01T06:01:47.644Z,18.10
2018-07-01T06:02:47.639Z,18.12
2018-07-01T06:03:47.626Z,18.23
2018-07-01T06:04:47.628Z,18.35
2018-07-01T06:05:47.610Z,18.41
2018-07-01T06:06:47.608Z,18.62
2018-07-01T06:07:47.597Z,18.67
2018-07-01T06:08:47.641Z,18.78
2018-07-01T06:09:47.573Z,18.85
2018-07-01T06:10:47.567Z,18.99
2018-07-01T06:11:47.563Z,19.00
2018-07-01T06:12:47.547Z,19.18
2018-07-01T06:13:47.539Z,19.18
2018-07-01T06:14:47.537Z,19.28
2018-07-01T06:15:47.534Z,19.39
2018-07-01T06:16:47.610Z,19.54
2018-07-01T06:17:47.513Z,19.51
2018-07-01T06:18:47.507Z,19.68
2018-07-01T06:19:47.502Z,19.65
2018-07-01T06:20:47.482Z,19.74
2018-07-01T06:21:47.480Z,19.87
2018-07-01T06:22:47.468Z,19.95
2018-07-01T06:23:47.468Z,19.98
2018-07-01T06:24:47.457Z,20.13
2018-07-01T06:25:47.448Z,20.18
2018-07-01T06:26:47.437Z,20.21
2018-07-01T06:27:47.426Z,20.29
2018-07-01T06:28:47.423Z,20.38
2018-07-01T06:29:47.409Z,20.42
2018-07-01T06:30:47.400Z,20.50
2018-07-01T06:31:47.399Z,20.61
2018-07-01T06:32:47.388Z,20.66
2018-07-01T06:33:47.386Z,20.69
2018-07-01T06:34:47.378Z,20.85
2018-07-01T06:35:47.367Z,20.89
2018-07-01T06:36:47.363Z,20.95
2018-07-01T06:37:47.352Z,20.95
2018-07-01T06:38:47.344Z,21.21
2018-07-01T06:39:47.339Z,21.43
2018-07-01T06:40:47.335Z,21.69
2018-07-01T06:41:47.321Z,21.79
2018-07-01T06:42:47.312Z,22.09
2018-07-01T06:43:47.315Z,22.17
2018-07-01T06:44:47.297Z,22.31
2018-07-01T06:45:47.291Z,22.43
2018-07-01T06:46:47.293Z,22.51
2018-07-01T06:47:47.276Z,22.57
2018-07-01T06:48:47.267Z,22.70
2018-07-01T06:49:47.264Z,22.68
2018-07-01T06:50:47.258Z,22.82
2018-07-01T06:51:47.246Z,22.90
2018-07-01T06:52:47.244Z,22.92
2018-07-01T06:53:47.239Z,22.98
2018-07-01T06:54:47.229Z,23.05
2018-07-01T06:55:47.224Z,23.15
2018-07-01T06:56:47.217Z,23.17
2018-07-01T06:57:47.207Z,23.22
2018-07-01T06:58:47.199Z,23.22
2018-07-01T06:59:47.195Z,23.25
2018-07-01T07:00:47.185Z,23.31
2018-07-01T07:01:47.178Z,23.22
2018-07-01T07:02:47.172Z,23.23
2018-07-01T07:03:47.168Z,23.31
2018-07-01T07:04:47.162Z,23.31
2018-07-01T07:05:47.155Z,23.28
2018-07-01T07:06:47.147Z,23.28
2018-07-01T07:07:47.155Z,23.32
2018-07-01T07:08:47.138Z,23.43
2018-07-01T07:09:47.126Z,23.53
2018-07-01T07:10:47.120Z,23.53
2018-07-01T07:11:47.160Z,23.60
2018-07-01T07:12:47.109Z,23.58
2018-07-01T07:13:47.102Z,23.68
2018-07-01T07:14:47.096Z,23.68
2018-07-01T07:15:47.093Z,23.75
2018-07-01T07:16:47.078Z,23.73
2018-07-01T07:17:47.082Z,23.79
2018-07-01T07:18:47.071Z,23.76
2018-07-01T07:19:47.066Z,23.94
2018-07-01T07:20:47.060Z,23.85
2018-07-01T07:21:47.053Z,23.88
2018-07-01T07:22:47.041Z,23.88
2018-07-01T07:23:47.041Z,23.90
2018-07-01T07:24:47.033Z,23.88
2018-07-01T07:25:47.030Z,23.88
2018-07-01T07:26:47.019Z,23.87
2018-07-01T07:27:47.018Z,23.80
2018-07-01T07:28:47.015Z,23.84
2018-07-01T07:29:46.999Z,23.84
2018-07-01T07:30:46.998Z,23.84
2018-07-01T07:31:46.992Z,23.80
2018-07-01T07:32:46.990Z,23.84
2018-07-01T07:33:46.979Z,23.91
2018-07-01T07:34:46.974Z,23.90
2018-07-01T07:35:46.966Z,23.88
2018-07-01T07:36:46.964Z,23.94
2018-07-01T07:37:46.951Z,24.00
2018-07-01T07:38:46.948Z,23.88
2018-07-01T07:39:46.939Z,24.00
2018-07-01T07:40:46.937Z,24.05
2018-07-01T07:41:46.932Z,23.91
2018-07-01T07:42:46.930Z,23.91
2018-07-01T07:43:46.916Z,23.87
2018-07-01T07:44:46.980Z,23.87
2018-07-01T07:45:46.912Z,23.68
2018-07-01T07:46:46.903Z,23.73
2018-07-01T07:47:46.901Z,23.72
2018-07-01T07:48:46.891Z,23.66
2018-07-01T07:49:46.887Z,23.66
2018-07-01T07:50:46.877Z,23.68
2018-07-01T07:51:46.871Z,23.68
2018-07-01T07:52:46.869Z,23.73
2018-07-01T07:53:46.862Z,23.76
2018-07-01T07:54:46.858Z,23.83
2018-07-01T07:55:46.854Z,23.69
2018-07-01T07:56:46.851Z,23.72
2018-07-01T07:57:46.838Z,23.63
2018-07-01T07:58:46.838Z,23.66
2018-07-01T07:59:46.830Z,23.63
2018-07-01T08:00:46.824Z,23.58
2018-07-01T08:01:46.822Z,23.47
2018-07-01T08:02:46.807Z,23.40
2018-07-01T08:03:46.803Z,23.40
2018-07-01T08:04:46.803Z,23.31
2018-07-01T08:05:46.791Z,23.27
2018-07-01T08:06:46.795Z,23.25
2018-07-01T08:07:46.787Z,23.28
2018-07-01T08:08:46.777Z,23.27
2018-07-01T08:09:46.768Z,23.19
2018-07-01T08:10:46.762Z,23.20
2018-07-01T08:11:46.758Z,23.28
2018-07-01T08:12:46.822Z,23.32
2018-07-01T08:13:46.749Z,23.27
2018-07-01T08:14:46.745Z,23.33
2018-07-01T08:15:46.733Z,23.43
2018-07-01T08:16:46.740Z,23.46
2018-07-01T08:17:46.724Z,23.32
2018-07-01T08:18:46.716Z,23.33
2018-07-01T08:19:46.712Z,23.36
2018-07-01T08:20:46.708Z,23.35
2018-07-01T08:21:46.698Z,23.42
2018-07-01T08:22:46.694Z,23.50
2018-07-01T08:23:46.690Z,23.42
2018-07-01T08:24:46.692Z,23.38
2018-07-01T08:25:46.679Z,23.42
2018-07-01T08:26:46.673Z,23.53
2018-07-01T08:27:46.668Z,23.61
2018-07-01T08:28:46.663Z,23.68
2018-07-01T08:29:46.652Z,23.70
2018-07-01T08:30:46.643Z,23.76
2018-07-01T08:31:46.647Z,23.76
2018-07-01T08:32:46.641Z,23.68
2018-07-01T08:33:46.630Z,23.85
2018-07-01T08:34:46.630Z,23.98
2018-07-01T08:35:46.622Z,24.02
2018-07-01T08:36:46.622Z,23.95
2018-07-01T08:37:46.611Z,24.05
2018-07-01T08:38:46.600Z,24.08
2018-07-01T08:39:46.598Z,24.06
2018-07-01T08:40:46.595Z,24.13
2018-07-01T08:41:46.585Z,24.27
2018-07-01T08:42:46.583Z,24.22
2018-07-01T08:43:46.575Z,24.34
2018-07-01T08:44:46.571Z,24.35
2018-07-01T08:45:46.562Z,24.43
2018-07-01T08:46:46.569Z,24.49
2018-07-01T08:47:46.550Z,24.49
2018-07-01T08:48:46.549Z,24.53
2018-07-01T08:49:46.539Z,24.58
2018-07-01T08:50:46.540Z,24.64
2018-07-01T08:51:46.529Z,24.67
2018-07-01T08:52:46.639Z,24.81
2018-07-01T08:53:46.521Z,24.85
2018-07-01T08:54:46.525Z,24.87
2018-07-01T08:55:46.513Z,24.93
2018-07-01T08:56:46.510Z,24.98
2018-07-01T08:57:46.502Z,25.05
2018-07-01T08:58:46.492Z,25.08
2018-07-01T08:59:46.491Z,25.03
2018-07-01T09:00:46.480Z,24.99
2018-07-01T09:01:46.472Z,25.02
2018-07-01T09:02:46.478Z,25.05
2018-07-01T09:03:46.471Z,25.06
2018-07-01T09:04:46.460Z,25.14
2018-07-01T09:05:46.457Z,25.09
2018-07-01T09:06:46.453Z,25.15
2018-07-01T09:07:46.449Z,25.23
2018-07-01T09:08:46.483Z,25.20
2018-07-01T09:09:46.429Z,25.21
2018-07-01T09:10:46.436Z,25.09
2018-07-01T09:11:46.429Z,25.20
2018-07-01T09:12:46.419Z,25.25
2018-07-01T09:13:46.416Z,25.27
2018-07-01T09:14:46.413Z,25.15
2018-07-01T09:15:46.407Z,25.40
2018-07-01T09:16:46.436Z,25.28
2018-07-01T09:17:46.393Z,25.32
2018-07-01T09:18:46.396Z,25.32
2018-07-01T09:19:46.389Z,25.33
2018-07-01T09:20:46.381Z,25.32
2018-07-01T09:21:46.380Z,25.35
2018-07-01T09:22:46.376Z,25.23
2018-07-01T09:23:46.373Z,25.33
2018-07-01T09:24:46.360Z,25.32
2018-07-01T09:25:46.358Z,25.35
2018-07-01T09:26:46.352Z,25.33
2018-07-01T09:27:46.349Z,25.35
2018-07-01T09:28:46.365Z,25.28
2018-07-01T09:29:46.338Z,25.30
2018-07-01T09:30:46.335Z,25.42
2018-07-01T09:31:46.332Z,25.52
2018-07-01T09:32:46.324Z,25.45
2018-07-01T09:33:46.315Z,25.47
2018-07-01T09:34:46.395Z,25.46
2018-07-01T09:35:46.308Z,25.51
2018-07-01T09:36:46.306Z,25.52
2018-07-01T09:37:46.300Z,25.51
2018-07-01T09:38:46.297Z,25.50
2018-07-01T09:39:46.296Z,25.50
2018-07-01T09:40:46.293Z,25.52
2018-07-01T09:41:46.281Z,25.62
2018-07-01T09:42:46.275Z,25.69
2018-07-01T09:43:46.269Z,25.67
2018-07-01T09:44:46.267Z,25.73
2018-07-01T09:45:46.258Z,25.70
2018-07-01T09:46:46.259Z,25.77
2018-07-01T09:47:46.254Z,25.75
2018-07-01T09:48:46.250Z,25.79
2018-07-01T09:49:46.250Z,25.80
2018-07-01T09:50:46.287Z,25.80
2018-07-01T09:51:46.237Z,25.77
2018-07-01T09:52:46.227Z,25.83
2018-07-01T09:53:46.225Z,25.87
2018-07-01T09:54:46.222Z,25.91
2018-07-01T09:55:46.212Z,25.83
2018-07-01T09:56:46.214Z,25.95
2018-07-01T09:57:46.204Z,25.88
2018-07-01T09:58:46.202Z,25.90
2018-07-01T09:59:46.205Z,25.90
2018-07-01T10:00:46.190Z,25.87
2018-07-01T10:01:46.187Z,26.06
2018-07-01T10:02:46.180Z,26.01
2018-07-01T10:03:46.177Z,26.07
2018-07-01T10:04:46.177Z,26.01
2018-07-01T10:05:46.166Z,26.01
2018-07-01T10:06:46.168Z,26.07
2018-07-01T10:07:46.157Z,26.06
2018-07-01T10:08:46.159Z,26.12
2018-07-01T10:09:46.150Z,26.18
2018-07-01T10:10:46.142Z,26.20
2018-07-01T10:11:46.140Z,26.29
2018-07-01T10:12:46.139Z,26.29
2018-07-01T10:13:46.132Z,26.26
2018-07-01T10:14:46.126Z,26.23
2018-07-01T10:15:46.124Z,26.18
2018-07-01T10:17:46.119Z,26.28
2018-07-01T10:18:46.133Z,26.32
2018-07-01T10:19:46.103Z,26.28
2018-07-01T10:20:46.103Z,26.15
2018-07-01T10:21:46.095Z,26.32
2018-07-01T10:22:46.092Z,26.39
2018-07-01T10:24:07.098Z,26.32
2018-07-01T10:24:46.084Z,26.45
2018-07-01T10:25:46.073Z,26.29
2018-07-01T10:26:46.073Z,26.39
2018-07-01T10:27:46.071Z,26.37
2018-07-01T10:28:46.065Z,26.37
2018-07-01T10:30:07.063Z,26.47
2018-07-01T10:30:46.055Z,26.54
2018-07-01T10:31:46.050Z,26.63
2018-07-01T10:32:46.045Z,26.69
2018-07-01T10:33:46.040Z,26.58
2018-07-01T10:34:46.044Z,26.73
2018-07-01T10:36:07.040Z,26.75
2018-07-01T10:36:46.030Z,26.84
2018-07-01T10:37:46.033Z,26.81
2018-07-01T10:38:46.024Z,26.81
2018-07-01T10:39:46.012Z,26.81
2018-07-01T10:40:46.011Z,26.95
2018-07-01T10:42:07.010Z,27.03
2018-07-01T10:42:46.008Z,27.02
2018-07-01T10:43:45.999Z,27.14
2018-07-01T10:44:46.005Z,26.97
2018-07-01T10:45:46.054Z,26.94
2018-07-01T10:46:45.994Z,26.95
2018-07-01T10:48:06.989Z,26.97
2018-07-01T10:48:45.977Z,27.06
2018-07-01T10:49:45.971Z,27.03
2018-07-01T10:50:45.966Z,27.09
2018-07-01T10:51:46.030Z,27.13
2018-07-01T10:52:45.963Z,27.27
2018-07-01T10:54:06.967Z,27.18
2018-07-01T10:54:45.955Z,27.19
2018-07-01T10:55:45.946Z,27.27
2018-07-01T10:56:45.949Z,27.24
2018-07-01T10:57:45.942Z,27.34
2018-07-01T10:58:45.940Z,27.41
2018-07-01T11:00:06.942Z,27.40
2018-07-01T11:00:45.932Z,27.29
2018-07-01T11:01:45.928Z,27.28
2018-07-01T11:02:45.920Z,27.32
2018-07-01T11:03:45.921Z,27.22
2018-07-01T11:04:45.917Z,27.21
2018-07-01T11:06:07.054Z,27.28
2018-07-01T11:06:45.906Z,27.31
2018-07-01T11:07:45.908Z,27.39
2018-07-01T11:08:45.896Z,27.39
2018-07-01T11:09:45.896Z,27.32
2018-07-01T11:10:45.890Z,27.50
2018-07-01T11:12:06.896Z,27.43
2018-07-01T11:12:45.883Z,27.50
2018-07-01T11:13:45.882Z,27.59
2018-07-01T11:14:45.875Z,27.62
2018-07-01T11:15:45.873Z,27.62
2018-07-01T11:16:45.867Z,27.70
2018-07-01T11:18:06.875Z,27.63
2018-07-01T11:18:45.861Z,27.66
2018-07-01T11:19:45.854Z,27.77
2018-07-01T11:20:45.851Z,27.78
2018-07-01T11:21:45.847Z,27.82
2018-07-01T11:22:45.844Z,27.87
2018-07-01T11:24:06.857Z,27.90
2018-07-01T11:24:45.836Z,27.92
2018-07-01T11:25:45.835Z,27.94
2018-07-01T11:26:45.918Z,27.84
2018-07-01T11:27:45.824Z,27.97
2018-07-01T11:28:45.825Z,27.97
2018-07-01T11:30:06.827Z,28.03
2018-07-01T11:30:45.816Z,28.00
2018-07-01T11:31:45.814Z,28.06
2018-07-01T11:32:45.861Z,28.12
2018-07-01T11:33:45.808Z,28.14
2018-07-01T11:34:45.804Z,28.07
2018-07-01T11:36:06.812Z,28.09
2018-07-01T11:36:45.802Z,28.21
2018-07-01T11:37:45.801Z,28.17
2018-07-01T11:38:45.795Z,28.19
2018-07-01T11:39:45.791Z,28.21
2018-07-01T11:40:45.781Z,28.17
2018-07-01T11:42:06.785Z,28.18
2018-07-01T11:42:45.781Z,28.27
2018-07-01T11:43:45.771Z,28.21
2018-07-01T11:44:45.774Z,28.18
2018-07-01T11:45:45.766Z,28.21
2018-07-01T11:46:45.764Z,28.19
2018-07-01T11:48:06.771Z,28.17
2018-07-01T11:48:45.757Z,28.19
2018-07-01T11:49:45.752Z,28.31
2018-07-01T11:50:45.748Z,28.31
2018-07-01T11:51:45.752Z,28.29
2018-07-01T11:52:45.748Z,28.30
2018-07-01T11:54:06.749Z,28.34
2018-07-01T11:54:45.737Z,28.37
2018-07-01T11:55:45.733Z,28.30
2018-07-01T11:56:45.734Z,28.36
2018-07-01T11:57:45.730Z,28.41
2018-07-01T11:58:45.730Z,28.36
2018-07-01T12:00:06.726Z,28.25
2018-07-01T12:00:45.722Z,28.30
2018-07-01T12:01:45.758Z,28.41
2018-07-01T12:02:45.719Z,28.44
2018-07-01T12:03:45.721Z,28.56
2018-07-01T12:05:02.954Z,28.59
2018-07-01T12:06:06.711Z,28.54
2018-07-01T12:06:45.705Z,28.49
2018-07-01T12:07:45.703Z,28.43
2018-07-01T12:08:45.699Z,28.39
2018-07-01T12:09:45.692Z,28.54
2018-07-01T12:10:45.692Z,28.64
2018-07-01T12:12:06.697Z,28.51
2018-07-01T12:12:45.681Z,28.68
2018-07-01T12:13:45.733Z,28.59
2018-07-01T12:14:45.678Z,28.61
2018-07-01T12:15:45.674Z,28.48
2018-07-01T12:16:45.675Z,28.51
2018-07-01T12:18:06.676Z,28.49
2018-07-01T12:18:45.667Z,28.59
2018-07-01T12:19:45.669Z,28.61
2018-07-01T12:20:45.667Z,28.49
2018-07-01T12:21:45.664Z,28.51
2018-07-01T12:22:45.661Z,28.48
2018-07-01T12:24:06.667Z,28.66
2018-07-01T12:24:45.651Z,28.58
2018-07-01T12:25:45.650Z,28.76
2018-07-01T12:26:45.646Z,28.78
2018-07-01T12:27:45.644Z,28.81
2018-07-01T12:28:45.672Z,28.92
2018-07-01T12:30:06.651Z,28.89
2018-07-01T12:30:45.633Z,28.90
2018-07-01T12:31:45.635Z,28.98
2018-07-01T12:32:45.631Z,28.96
2018-07-01T12:33:45.627Z,29.04
2018-07-01T12:34:45.689Z,29.06
2018-07-01T12:36:06.630Z,29.06
2018-07-01T12:36:45.618Z,29.08
2018-07-01T12:37:45.618Z,29.02
2018-07-01T12:38:45.613Z,29.09
2018-07-01T12:39:45.621Z,28.98
2018-07-01T12:40:45.610Z,29.15
2018-07-01T12:42:06.645Z,29.21
2018-07-01T12:42:45.610Z,29.18
2018-07-01T12:43:45.604Z,29.18
2018-07-01T12:44:45.601Z,29.24
2018-07-01T12:45:45.599Z,29.21
2018-07-01T12:46:45.594Z,29.28
2018-07-01T12:48:06.691Z,29.24
2018-07-01T12:48:45.595Z,29.19
2018-07-01T12:49:45.586Z,29.26
2018-07-01T12:50:45.582Z,29.37
2018-07-01T12:51:45.590Z,29.31
2018-07-01T12:52:45.582Z,29.41
2018-07-01T12:54:06.584Z,29.45